createdAt,value
2019-01-15T00:00:10.581Z,1.35
2019-01-15T00:02:39.339Z,1.60
2019-01-15T00:05:08.080Z,1.87
2019-01-15T00:07:36.817Z,1.32
2019-01-15T00:10:07.893Z,1.30
2019-01-15T00:12:36.722Z,2.52
2019-01-15T00:15:09.953Z,2.30
2019-01-15T00:17:38.694Z,2.45
2019-01-15T00:20:10.862Z,2.08
2019-01-15T00:22:39.634Z,2.40
2019-01-15T00:25:09.025Z,2.80
2019-01-15T00:27:37.828Z,1.52
2019-01-15T00:30:10.007Z,1.50
2019-01-15T00:32:39.332Z,2.95
2019-01-15T00:35:08.408Z,2.60
2019-01-15T00:37:37.144Z,2.58
2019-01-15T00:40:08.825Z,2.95
2019-01-15T00:42:37.801Z,2.77
2019-01-15T00:45:08.316Z,1.90
2019-01-15T00:47:37.045Z,2.45
2019-01-15T00:50:08.847Z,2.65
2019-01-15T00:52:37.626Z,3.42
2019-01-15T00:55:08.151Z,2.45
2019-01-15T00:57:36.884Z,2.37
2019-01-15T01:00:19.969Z,2.52
2019-01-15T01:02:49.166Z,2.25
2019-01-15T01:05:18.468Z,3.27
2019-01-15T01:07:47.520Z,2.42
2019-01-15T01:10:17.866Z,1.92
2019-01-15T01:12:46.614Z,2.62
2019-01-15T01:15:16.777Z,2.25
2019-01-15T01:17:45.797Z,1.62
2019-01-15T01:20:20.925Z,2.90
2019-01-15T01:22:49.846Z,2.37
2019-01-15T01:25:18.561Z,2.45
2019-01-15T01:27:47.332Z,2.05
2019-01-15T01:30:18.406Z,1.90
2019-01-15T01:32:47.165Z,3.00
2019-01-15T01:35:16.144Z,2.17
2019-01-15T01:37:44.944Z,2.65
2019-01-15T01:40:15.853Z,2.80
2019-01-15T01:42:44.577Z,2.33
2019-01-15T01:45:14.853Z,1.77
2019-01-15T01:47:43.853Z,3.02
2019-01-15T01:50:13.845Z,1.82
2019-01-15T01:52:42.888Z,3.00
2019-01-15T01:55:13.484Z,2.70
2019-01-15T01:57:42.238Z,1.95
2019-01-15T02:00:16.446Z,2.15
2019-01-15T02:02:45.193Z,2.12
2019-01-15T02:05:13.954Z,2.15
2019-01-15T02:07:43.017Z,2.70
2019-01-15T02:10:16.573Z,1.65
2019-01-15T02:12:45.713Z,2.02
2019-01-15T02:15:17.173Z,2.70
2019-01-15T02:17:46.185Z,2.35
2019-01-15T02:20:18.096Z,1.82
2019-01-15T02:22:46.858Z,2.33
2019-01-15T02:25:15.902Z,2.62
2019-01-15T02:27:46.344Z,1.85
2019-01-15T02:30:17.678Z,2.02
2019-01-15T02:32:46.517Z,2.22
2019-01-15T02:35:15.412Z,3.42
2019-01-15T02:37:44.818Z,2.17
2019-01-15T02:40:14.919Z,4.65
2019-01-15T02:42:47.015Z,2.92
2019-01-15T02:45:17.811Z,3.02
2019-01-15T02:47:47.476Z,1.92
2019-01-15T02:50:17.892Z,2.35
2019-01-15T02:52:46.743Z,2.10
2019-01-15T02:55:15.586Z,2.27
2019-01-15T02:57:44.424Z,2.90
2019-01-15T03:00:18.777Z,2.83
2019-01-15T03:02:47.822Z,2.40
2019-01-15T03:05:16.933Z,2.27
2019-01-15T03:07:45.729Z,2.60
2019-01-15T03:10:17.107Z,1.90
2019-01-15T03:12:54.915Z,2.40
2019-01-15T03:15:18.026Z,3.15
2019-01-15T03:17:46.787Z,2.98
2019-01-15T03:20:17.087Z,2.62
2019-01-15T03:22:45.886Z,3.05
2019-01-15T03:25:14.756Z,2.40
2019-01-15T03:27:43.490Z,2.75
2019-01-15T03:30:15.246Z,3.05
2019-01-15T03:32:44.014Z,2.50
2019-01-15T03:35:12.915Z,2.62
2019-01-15T03:37:41.674Z,2.00
2019-01-15T03:40:16.213Z,2.50
2019-01-15T03:42:45.006Z,3.12
2019-01-15T03:45:13.917Z,2.77
2019-01-15T03:47:42.708Z,2.27
2019-01-15T03:50:12.106Z,2.15
2019-01-15T03:52:40.913Z,2.55
2019-01-15T03:55:11.983Z,2.98
2019-01-15T03:57:40.948Z,2.17
2019-01-15T04:00:19.166Z,2.37
2019-01-15T04:02:48.033Z,3.42
2019-01-15T04:05:17.423Z,3.10
2019-01-15T04:07:47.460Z,2.58
2019-01-15T04:10:16.193Z,2.50
2019-01-15T04:12:45.034Z,2.30
2019-01-15T04:15:14.520Z,2.50
2019-01-15T04:17:43.451Z,5.75
2019-01-15T04:20:16.771Z,2.58
2019-01-15T04:22:45.680Z,2.40
2019-01-15T04:25:15.894Z,2.08
2019-01-15T04:27:44.779Z,2.20
2019-01-15T04:30:16.653Z,2.15
2019-01-15T04:32:45.441Z,3.15
2019-01-15T04:35:14.239Z,3.42
2019-01-15T04:37:43.053Z,2.52
2019-01-15T04:40:14.264Z,2.98
2019-01-15T04:42:43.097Z,2.50
2019-01-15T04:45:14.464Z,3.40
2019-01-15T04:47:43.303Z,1.95
2019-01-15T04:50:12.344Z,2.35
2019-01-15T04:52:42.900Z,2.45
2019-01-15T04:55:12.573Z,2.05
2019-01-15T04:57:41.404Z,3.27
2019-01-15T05:00:18.944Z,1.77
2019-01-15T05:02:48.679Z,3.00
2019-01-15T05:05:17.637Z,2.67
2019-01-15T05:07:46.438Z,2.75
2019-01-15T05:10:16.310Z,1.95
2019-01-15T05:12:45.038Z,2.08
2019-01-15T05:15:15.775Z,3.65
2019-01-15T05:17:44.916Z,2.67
2019-01-15T05:20:18.506Z,2.65
2019-01-15T05:22:47.264Z,2.20
2019-01-15T05:25:18.339Z,2.70
2019-01-15T05:27:47.106Z,2.35
2019-01-15T05:30:24.700Z,1.90
2019-01-15T05:32:53.466Z,2.55
2019-01-15T05:35:22.311Z,1.67
2019-01-15T05:37:51.044Z,2.27
2019-01-15T05:40:19.986Z,2.05
2019-01-15T05:42:48.799Z,3.62
2019-01-15T05:45:24.169Z,1.45
2019-01-15T05:47:54.592Z,2.35
2019-01-15T05:50:24.964Z,1.85
2019-01-15T05:52:53.966Z,1.85
2019-01-15T05:55:23.018Z,3.55
2019-01-15T05:57:51.879Z,2.30
2019-01-15T06:00:20.676Z,1.87
2019-01-15T06:02:50.893Z,1.98
2019-01-15T06:05:19.826Z,1.62
2019-01-15T06:07:48.586Z,1.95
2019-01-15T06:10:17.391Z,1.57
2019-01-15T06:12:46.216Z,2.70
2019-01-15T06:15:16.740Z,2.20
2019-01-15T06:17:45.501Z,1.85
2019-01-15T06:20:19.264Z,1.95
2019-01-15T06:22:48.025Z,1.45
2019-01-15T06:25:17.024Z,2.47
2019-01-15T06:27:45.832Z,2.55
2019-01-15T06:30:19.885Z,4.65
2019-01-15T06:32:48.646Z,2.67
2019-01-15T06:35:17.448Z,1.65
2019-01-15T06:37:46.297Z,1.75
2019-01-15T06:40:19.064Z,2.60
2019-01-15T06:42:47.970Z,1.80
2019-01-15T06:45:22.475Z,2.50
2019-01-15T06:47:51.294Z,1.85
2019-01-15T06:50:20.130Z,2.08
2019-01-15T06:52:53.569Z,2.58
2019-01-15T06:55:29.314Z,2.42
2019-01-15T06:58:00.630Z,2.50
2019-01-15T07:00:30.768Z,1.90
2019-01-15T07:02:59.989Z,2.47
2019-01-15T07:05:28.795Z,1.40
2019-01-15T07:07:57.521Z,1.92
2019-01-15T07:10:34.638Z,1.92
2019-01-15T07:13:03.406Z,2.30
2019-01-15T07:15:32.228Z,1.40
2019-01-15T07:18:00.975Z,3.20
2019-01-15T07:20:29.692Z,1.98
2019-01-15T07:22:58.559Z,1.20
2019-01-15T07:25:28.821Z,1.62
2019-01-15T07:27:57.921Z,1.07
2019-01-15T07:30:38.356Z,1.87
2019-01-15T07:33:07.561Z,2.60
2019-01-15T07:35:36.347Z,2.42
2019-01-15T07:38:05.476Z,1.98
2019-01-15T07:40:34.234Z,1.60
2019-01-15T07:43:02.993Z,1.40
2019-01-15T07:45:32.053Z,1.45
2019-01-15T07:48:00.975Z,1.85
2019-01-15T07:50:30.230Z,1.95
2019-01-15T07:52:59.361Z,1.15
2019-01-15T07:55:28.137Z,2.72
2019-01-15T07:57:57.793Z,2.05
2019-01-15T08:00:26.970Z,1.82
2019-01-15T08:02:55.818Z,1.75
2019-01-15T08:05:27.610Z,1.70
2019-01-15T08:07:56.436Z,1.87
2019-01-15T08:10:25.174Z,1.65
2019-01-15T08:12:53.972Z,1.82
2019-01-15T08:15:25.777Z,1.75
2019-01-15T08:17:54.551Z,2.20
2019-01-15T08:20:23.444Z,1.95
2019-01-15T08:22:52.196Z,1.98
2019-01-15T08:25:20.923Z,2.35
2019-01-15T08:27:49.761Z,2.45
2019-01-15T08:30:30.096Z,2.40
2019-01-15T08:32:58.933Z,2.37
2019-01-15T08:35:27.757Z,2.10
2019-01-15T08:37:56.492Z,1.40
2019-01-15T08:40:25.336Z,1.10
2019-01-15T08:42:54.124Z,1.95
2019-01-15T08:45:22.889Z,2.10
2019-01-15T08:47:53.366Z,1.90
2019-01-15T08:50:27.172Z,2.50
2019-01-15T08:52:55.934Z,1.42
2019-01-15T08:55:24.788Z,2.37
2019-01-15T08:57:53.581Z,1.98
2019-01-15T09:00:22.400Z,2.40
2019-01-15T09:02:51.221Z,2.37
2019-01-15T09:05:20.037Z,2.17
2019-01-15T09:07:49.016Z,2.85
2019-01-15T09:10:18.960Z,2.25
2019-01-15T09:12:47.831Z,2.42
2019-01-15T09:15:21.420Z,2.77
2019-01-15T09:17:50.365Z,2.25
2019-01-15T09:20:20.564Z,2.40
2019-01-15T09:22:49.768Z,3.55
2019-01-15T09:25:18.667Z,2.27
2019-01-15T09:27:47.540Z,2.33
2019-01-15T09:30:21.096Z,2.17
2019-01-15T09:32:49.878Z,2.10
2019-01-15T09:35:18.647Z,2.22
2019-01-15T09:37:48.926Z,2.67
2019-01-15T09:40:20.472Z,3.22
2019-01-15T09:42:49.298Z,3.47
2019-01-15T09:45:20.765Z,3.10
2019-01-15T09:47:51.173Z,2.30
2019-01-15T09:50:19.975Z,2.60
2019-01-15T09:52:48.952Z,2.40
2019-01-15T09:55:17.997Z,2.20
2019-01-15T09:57:46.851Z,3.70
2019-01-15T10:00:18.214Z,2.65
2019-01-15T10:02:47.560Z,2.75
2019-01-15T10:05:16.576Z,2.42
2019-01-15T10:07:45.384Z,2.65
2019-01-15T10:10:19.432Z,1.75
2019-01-15T10:12:48.248Z,2.90
2019-01-15T10:15:18.818Z,3.30
2019-01-15T10:17:47.629Z,2.40
2019-01-15T10:20:19.592Z,3.40
2019-01-15T10:22:48.958Z,3.37
2019-01-15T10:25:25.272Z,3.40
2019-01-15T10:27:54.831Z,3.55
2019-01-15T10:30:28.689Z,3.35
2019-01-15T10:33:00.597Z,3.33
2019-01-15T10:35:32.573Z,3.45
2019-01-15T10:38:01.401Z,3.20
2019-01-15T10:40:31.057Z,3.05
2019-01-15T10:42:59.901Z,3.90
2019-01-15T10:45:28.734Z,4.03
2019-01-15T10:47:58.066Z,3.70
2019-01-15T10:50:26.825Z,3.47
2019-01-15T10:52:55.609Z,3.65
2019-01-15T10:55:24.395Z,3.33
2019-01-15T10:57:53.151Z,3.42
2019-01-15T11:00:21.922Z,3.95
2019-01-15T11:02:50.784Z,4.90
2019-01-15T11:05:19.586Z,4.20
2019-01-15T11:07:48.383Z,3.42
2019-01-15T11:10:17.162Z,3.50
2019-01-15T11:12:46.292Z,3.42
2019-01-15T11:15:15.149Z,3.30
2019-01-15T11:17:44.046Z,3.62
2019-01-15T11:20:16.134Z,3.20
2019-01-15T11:22:44.867Z,3.75
2019-01-15T11:25:13.675Z,3.30
2019-01-15T11:27:42.698Z,4.70
2019-01-15T11:30:14.106Z,4.05
2019-01-15T11:32:42.856Z,5.25
2019-01-15T11:35:13.161Z,5.03
2019-01-15T11:37:41.904Z,5.60
2019-01-15T11:40:13.567Z,3.92
2019-01-15T11:42:42.342Z,4.75
2019-01-15T11:45:14.101Z,4.28
2019-01-15T11:47:42.868Z,5.15
2019-01-15T11:50:14.841Z,5.55
2019-01-15T11:52:43.596Z,5.42
2019-01-15T11:55:12.469Z,6.22
2019-01-15T11:57:41.341Z,6.05
2019-01-15T12:00:17.691Z,11.97
2019-01-15T12:02:48.463Z,4.78
2019-01-15T12:05:18.946Z,5.80
2019-01-15T12:07:52.023Z,5.70
2019-01-15T12:10:25.156Z,7.50
2019-01-15T12:13:11.538Z,6.33
2019-01-15T12:15:42.049Z,7.47
2019-01-15T12:18:12.500Z,7.97
2019-01-15T12:20:54.714Z,7.15
2019-01-15T12:23:37.161Z,9.13
2019-01-15T12:26:07.602Z,8.13
2019-01-15T12:28:53.942Z,5.90
2019-01-15T12:31:36.331Z,7.60
2019-01-15T12:34:12.621Z,8.00
2019-01-15T12:36:51.836Z,7.85
2019-01-15T12:39:31.074Z,9.08
2019-01-15T12:42:16.289Z,7.30
2019-01-15T12:45:02.835Z,6.90
2019-01-15T12:47:36.207Z,9.18
2019-01-15T12:50:21.805Z,8.30
2019-01-15T12:52:52.245Z,7.30
2019-01-15T12:55:22.667Z,7.92
2019-01-15T12:58:09.398Z,10.08
2019-01-15T13:00:48.597Z,8.18
2019-01-15T13:03:22.233Z,9.53
2019-01-15T13:06:08.876Z,10.82
2019-01-15T13:08:42.023Z,8.73
2019-01-15T13:11:21.157Z,12.35
2019-01-15T13:14:00.350Z,14.07
2019-01-15T13:16:36.445Z,10.78
2019-01-15T13:19:23.881Z,12.30
2019-01-15T13:22:06.272Z,13.62
2019-01-15T13:24:39.600Z,14.07
2019-01-15T13:27:10.042Z,12.20
2019-01-15T13:29:43.137Z,13.10
2019-01-15T13:32:29.906Z,12.35
2019-01-15T13:35:06.234Z,15.40
2019-01-15T13:37:36.712Z,14.05
2019-01-15T13:40:12.897Z,13.32
2019-01-15T13:42:49.273Z,13.98
2019-01-15T13:45:22.572Z,16.00
2019-01-15T13:47:53.004Z,16.30
2019-01-15T13:50:32.266Z,18.20
2019-01-15T13:53:14.882Z,17.77
2019-01-15T13:55:45.344Z,18.55
2019-01-15T13:58:27.745Z,17.60
2019-01-15T14:01:12.981Z,16.00
2019-01-15T14:03:58.440Z,16.48
2019-01-15T14:06:40.641Z,17.07
2019-01-15T14:09:17.231Z,16.80
2019-01-15T14:11:59.741Z,14.15
2019-01-15T14:14:30.190Z,15.70
2019-01-15T14:17:09.360Z,13.55
2019-01-15T14:19:42.734Z,15.72
2019-01-15T14:22:29.477Z,14.20
2019-01-15T14:24:59.922Z,14.55
2019-01-15T14:27:33.034Z,12.88
2019-01-15T14:30:03.470Z,18.27
2019-01-15T14:32:33.884Z,17.45
2019-01-15T14:35:28.744Z,14.20
2019-01-15T14:37:59.173Z,15.65
2019-01-15T14:40:32.336Z,15.32
2019-01-15T14:43:11.670Z,10.98
2019-01-15T14:45:56.489Z,15.58
2019-01-15T14:48:37.815Z,16.12
2019-01-15T14:51:11.037Z,13.75
2019-01-15T14:53:41.448Z,14.15
2019-01-15T14:56:23.706Z,11.00
2019-01-15T14:58:56.852Z,13.68
2019-01-15T15:01:36.370Z,15.43
2019-01-15T15:04:07.070Z,16.15
2019-01-15T15:06:49.569Z,14.85
2019-01-15T15:09:36.088Z,12.00
2019-01-15T15:12:15.634Z,15.25
2019-01-15T15:14:51.770Z,14.55
2019-01-15T15:17:25.121Z,9.38
2019-01-15T15:19:55.629Z,13.83
2019-01-15T15:22:37.754Z,12.20
2019-01-15T15:25:10.513Z,14.28
2019-01-15T15:27:56.905Z,10.70
2019-01-15T15:30:33.368Z,17.12
2019-01-15T15:33:15.572Z,17.20
2019-01-15T15:35:51.665Z,18.52
2019-01-15T15:38:22.028Z,17.50
2019-01-15T15:40:55.797Z,15.00
2019-01-15T15:43:38.546Z,16.80
2019-01-15T15:46:11.329Z,18.12
2019-01-15T15:48:53.197Z,16.52
2019-01-15T15:51:23.840Z,17.10
2019-01-15T15:53:57.057Z,14.73
2019-01-15T15:56:39.640Z,17.80
2019-01-15T15:59:10.170Z,18.00
2019-01-15T16:01:52.388Z,22.58
2019-01-15T16:04:22.801Z,18.77
2019-01-15T16:07:05.342Z,16.52
2019-01-15T16:09:51.900Z,15.58
2019-01-15T16:12:25.127Z,16.65
2019-01-15T16:14:55.727Z,20.68
2019-01-15T16:17:41.503Z,16.05
2019-01-15T16:20:12.145Z,18.67
2019-01-15T16:22:45.297Z,20.17
2019-01-15T16:25:21.582Z,22.32
2019-01-15T16:28:04.131Z,20.65
2019-01-15T16:30:46.364Z,18.90
2019-01-15T16:33:19.480Z,21.35
2019-01-15T16:35:53.363Z,19.37
2019-01-15T16:38:36.136Z,20.43
2019-01-15T16:41:09.242Z,17.27
2019-01-15T16:43:42.370Z,20.23
2019-01-15T16:46:12.920Z,15.32
2019-01-15T16:48:49.550Z,20.77
2019-01-15T16:51:22.945Z,19.15
2019-01-15T16:54:05.114Z,15.25
2019-01-15T16:56:35.557Z,19.40
2019-01-15T16:59:11.687Z,16.90
2019-01-15T17:01:47.785Z,16.35
2019-01-15T17:04:26.882Z,15.48
2019-01-15T17:07:09.195Z,15.45
2019-01-15T17:09:51.450Z,17.32
2019-01-15T17:12:27.662Z,17.48
2019-01-15T17:15:14.090Z,15.00
2019-01-15T17:17:44.515Z,15.13
2019-01-15T17:20:31.203Z,14.98
2019-01-15T17:23:13.578Z,14.43
2019-01-15T17:25:52.919Z,17.45
2019-01-15T17:28:29.066Z,14.45
2019-01-15T17:31:15.473Z,13.40
2019-01-15T17:33:46.064Z,14.05
2019-01-15T17:36:19.211Z,18.05
2019-01-15T17:39:06.013Z,12.13
2019-01-15T17:41:48.289Z,18.50
2019-01-15T17:44:34.216Z,16.37
2019-01-15T17:47:08.044Z,16.87
2019-01-15T17:49:56.845Z,16.52
2019-01-15T17:52:43.621Z,11.85
2019-01-15T17:55:17.337Z,16.50
2019-01-15T17:58:04.039Z,13.32
2019-01-15T18:00:52.608Z,13.85
2019-01-15T18:03:25.495Z,10.80
2019-01-15T18:06:11.952Z,14.30
2019-01-15T18:08:42.495Z,13.85
2019-01-15T18:11:13.058Z,13.38
2019-01-15T18:13:52.345Z,11.40
2019-01-15T18:16:28.669Z,13.05
2019-01-15T18:18:59.200Z,9.73
2019-01-15T18:21:29.745Z,16.25
2019-01-15T18:24:06.153Z,16.35
2019-01-15T18:26:36.563Z,15.08
2019-01-15T18:29:18.526Z,16.70
2019-01-15T18:32:05.002Z,12.60
2019-01-15T18:34:44.466Z,15.20
2019-01-15T18:37:26.929Z,13.65
2019-01-15T18:40:03.039Z,13.90
2019-01-15T18:42:37.904Z,12.80
2019-01-15T18:45:12.825Z,12.30
2019-01-15T18:47:59.504Z,12.85
2019-01-15T18:50:45.280Z,12.15
2019-01-15T18:53:31.773Z,12.03
2019-01-15T18:56:04.956Z,14.45
2019-01-15T18:58:44.093Z,13.40
2019-01-15T19:01:14.765Z,10.78
2019-01-15T19:03:53.229Z,16.50
2019-01-15T19:06:39.707Z,13.75
2019-01-15T19:09:16.635Z,13.90
2019-01-15T19:12:03.336Z,11.50
2019-01-15T19:14:39.215Z,10.48
2019-01-15T19:17:12.717Z,9.48
2019-01-15T19:19:46.190Z,11.43
2019-01-15T19:22:16.615Z,14.47
2019-01-15T19:24:53.056Z,12.53
2019-01-15T19:27:39.717Z,13.50
2019-01-15T19:30:21.204Z,14.40
2019-01-15T19:33:07.596Z,14.40
2019-01-15T19:35:38.002Z,13.50
2019-01-15T19:38:24.437Z,12.80
2019-01-15T19:41:11.136Z,13.88
2019-01-15T19:43:44.432Z,11.20
2019-01-15T19:46:30.845Z,15.95
2019-01-15T19:49:01.234Z,9.98
2019-01-15T19:51:34.621Z,15.25
2019-01-15T19:54:16.796Z,15.43
2019-01-15T19:57:05.041Z,15.40
2019-01-15T19:59:41.077Z,12.88
2019-01-15T20:02:29.318Z,16.37
2019-01-15T20:05:02.224Z,13.93
2019-01-15T20:07:48.874Z,16.32
2019-01-15T20:10:35.300Z,15.48
2019-01-15T20:13:21.954Z,15.85
2019-01-15T20:16:01.278Z,13.15
2019-01-15T20:18:34.406Z,15.28
2019-01-15T20:21:10.976Z,14.53
2019-01-15T20:23:47.145Z,14.33
2019-01-15T20:26:33.709Z,16.65
2019-01-15T20:29:04.125Z,13.30
2019-01-15T20:31:50.374Z,14.60
2019-01-15T20:34:35.634Z,16.90
2019-01-15T20:37:14.954Z,11.20
2019-01-15T20:39:45.371Z,12.65
2019-01-15T20:42:21.525Z,14.38
2019-01-15T20:44:57.695Z,16.00
2019-01-15T20:47:44.375Z,18.30
2019-01-15T20:50:23.914Z,10.28
2019-01-15T20:52:54.328Z,14.95
2019-01-15T20:55:30.468Z,14.95
2019-01-15T20:58:15.786Z,16.37
2019-01-15T21:00:46.172Z,15.40
2019-01-15T21:03:16.842Z,14.80
2019-01-15T21:05:56.128Z,16.23
2019-01-15T21:08:29.713Z,12.13
2019-01-15T21:11:06.107Z,14.78
2019-01-15T21:13:54.588Z,15.25
2019-01-15T21:16:41.204Z,10.78
2019-01-15T21:19:14.594Z,13.65
2019-01-15T21:21:48.109Z,12.68
2019-01-15T21:24:27.304Z,11.60
2019-01-15T21:27:06.886Z,14.55
2019-01-15T21:29:46.302Z,12.88
2019-01-15T21:32:34.658Z,9.08
2019-01-15T21:35:20.941Z,11.28
2019-01-15T21:38:07.795Z,12.25
2019-01-15T21:40:38.236Z,9.93
2019-01-15T21:43:17.420Z,10.78
2019-01-15T21:46:03.868Z,10.98
2019-01-15T21:48:46.485Z,11.70
2019-01-15T21:51:33.341Z,9.65
2019-01-15T21:54:19.666Z,11.35
2019-01-15T21:56:52.980Z,11.30
2019-01-15T21:59:38.148Z,11.53
2019-01-15T22:02:08.560Z,11.12
2019-01-15T22:04:41.653Z,11.85
2019-01-15T22:07:14.971Z,10.90
2019-01-15T22:09:45.410Z,9.20
2019-01-15T22:12:24.690Z,11.55
2019-01-15T22:14:58.094Z,8.90
2019-01-15T22:17:47.464Z,11.88
2019-01-15T22:20:21.551Z,12.73
2019-01-15T22:22:52.020Z,14.05
2019-01-15T22:25:25.360Z,11.12
2019-01-15T22:27:58.717Z,13.58
2019-01-15T22:30:32.160Z,13.20
2019-01-15T22:33:05.263Z,12.50
2019-01-15T22:35:50.667Z,12.70
2019-01-15T22:38:23.797Z,13.90
2019-01-15T22:40:54.273Z,15.30
2019-01-15T22:43:30.603Z,14.83
2019-01-15T22:46:01.051Z,15.78
2019-01-15T22:48:34.435Z,17.45
2019-01-15T22:51:10.655Z,18.82
2019-01-15T22:53:55.863Z,20.80
2019-01-15T22:56:38.468Z,17.50
2019-01-15T22:59:08.864Z,19.15
2019-01-15T23:01:39.309Z,21.80
2019-01-15T23:04:15.434Z,16.67
2019-01-15T23:07:02.165Z,20.75
2019-01-15T23:09:48.968Z,17.27
2019-01-15T23:12:25.259Z,16.77
2019-01-15T23:15:04.555Z,13.98
2019-01-15T23:17:52.790Z,13.43
2019-01-15T23:20:39.138Z,14.65
2019-01-15T23:23:25.894Z,18.80
2019-01-15T23:26:02.336Z,16.12
2019-01-15T23:28:32.980Z,12.75
2019-01-15T23:31:19.790Z,14.90
2019-01-15T23:33:50.216Z,14.90
2019-01-15T23:36:20.886Z,14.87
2019-01-15T23:38:57.153Z,15.90
2019-01-15T23:41:33.273Z,14.93
2019-01-15T23:44:18.730Z,13.00
2019-01-15T23:46:57.918Z,14.43
2019-01-15T23:49:34.002Z,14.75
2019-01-15T23:52:07.145Z,12.70
2019-01-15T23:54:49.482Z,10.25
2019-01-15T23:57:19.872Z,13.25
2019-01-15T23:59:53.541Z,13.65
